Terminal Aerodrome Forecast
Issued by NWS

Home | Current Version | Previous Version | Text Only | Print | Product List | Glossary Off
Versions: 1 2 3 4 5 6 7 8 9 10 11 12 13 14 15 16 17 18 19 20 21

000
FTUS43 KMPX 280812 AAB
TAFAXN
TAF AMD
KAXN 280812Z 2808/2906 17004KT 6SM BR SCT009 OVC020
     FM281300 13008KT P6SM BKN025
     FM282000 15007KT P6SM SCT030 BKN100
     FM290000 15004KT P6SM BKN250=

USA.gov is the U.S. government's official web portal to all federal, state and local government web resources and services.